Terminal Aerodrome Forecast
Issued by NWS Charleston, WV

Current Version | Previous Version | Text Only | Print | Product List | Glossary Off
Versions: 1 2 3 4 5 6 7 8 9 10 11 12 13 14 15 16 17 18 19 20 21 22 23 24 25

000
FTUS41 KRLX 260247 AAA
TAFPKB
TAF AMD
KPKB 260247Z 2603/2624 00000KT P6SM SCT050
     FM260700 00000KT 5SM BR FEW001 SCT070
     FM261300 00000KT 6SM BR BKN040
     FM261400 23005KT P6SM BKN040
     FM261900 25006KT P6SM VCTS BKN045CB=

USA.gov is the U.S. government's official web portal to all federal, state and local government web resources and services.